Time;durP1;ratioP1;P1;durP2;ratioP2;P2;SDS_P1;SDS_P2;PMS_P1;PMS_P2;Temp;Humidity;BMP_temperature;BMP_pressure;BME280_temperature;BME280_humidity;BME280_pressure;Samples;Min_cycle;Max_cycle;Signal;HPM_P1;HPM_P2
2022/09/01 00:00:40;;;;;;;1.47;1.13;;;12.20;99.90;;;;;;5063944;28;20225;-79
2022/09/01 00:03:09;;;;;;;0.90;0.70;;;12.10;99.90;;;;;;5068534;28;20231;-79
2022/09/01 00:05:36;;;;;;;1.10;1.00;;;12.10;99.90;;;;;;5071519;28;20233;-79
2022/09/01 00:08:03;;;;;;;1.80;0.97;;;12.10;99.90;;;;;;5071234;28;20253;-80
2022/09/01 00:10:30;;;;;;;1.00;0.87;;;12.10;99.90;;;;;;5070369;28;20314;-79
2022/09/01 00:12:57;;;;;;;1.43;0.80;;;12.10;99.90;;;;;;5066028;28;20224;-80
2022/09/01 00:15:25;;;;;;;1.10;0.90;;;12.10;99.90;;;;;;5070777;28;20226;-80
2022/09/01 00:17:52;;;;;;;3.27;1.20;;;12.10;99.90;;;;;;5066376;28;20229;-78
2022/09/01 00:20:19;;;;;;;1.23;0.93;;;12.00;99.90;;;;;;5063391;28;20226;-79
2022/09/01 00:22:46;;;;;;;2.10;0.97;;;12.00;99.90;;;;;;5066956;28;20233;-79
2022/09/01 00:25:12;;;;;;;0.80;0.70;;;12.00;99.90;;;;;;5065524;28;20853;-79
2022/09/01 00:27:39;;;;;;;3.00;1.00;;;12.00;99.90;;;;;;5064238;28;20230;-79
2022/09/01 00:30:07;;;;;;;1.20;1.00;;;12.00;99.90;;;;;;5061463;28;20223;-79
2022/09/01 00:32:35;;;;;;;1.73;1.03;;;12.00;99.90;;;;;;5062223;28;20235;-79
2022/09/01 00:35:03;;;;;;;2.03;0.87;;;12.00;99.90;;;;;;5065877;28;20319;-79
2022/09/01 00:37:30;;;;;;;1.77;0.93;;;11.90;99.90;;;;;;5063735;28;20454;-79
2022/09/01 00:39:57;;;;;;;1.53;1.20;;;11.90;99.90;;;;;;5084157;28;20314;-79
2022/09/01 00:42:24;;;;;;;1.50;0.80;;;11.90;99.90;;;;;;5067510;28;20231;-80
2022/09/01 00:44:50;;;;;;;1.37;1.07;;;11.90;99.90;;;;;;5062419;28;20249;-81
2022/09/01 00:47:17;;;;;;;1.20;1.10;;;11.90;99.90;;;;;;5066588;28;20224;-79
2022/09/01 00:49:49;;;;;;;3.20;1.30;;;11.90;99.90;;;;;;5071559;28;20223;-79
2022/09/01 00:52:19;;;;;;;0.87;0.87;;;11.90;99.90;;;;;;5068311;28;20217;-80
2022/09/01 00:54:49;;;;;;;1.47;1.20;;;11.90;99.90;;;;;;5069044;28;20306;-79
2022/09/01 00:57:17;;;;;;;1.43;1.07;;;11.90;99.90;;;;;;5061659;28;20222;-79
2022/09/01 00:59:49;;;;;;;1.83;1.00;;;11.90;99.90;;;;;;5067030;28;20248;-79
2022/09/01 01:02:16;;;;;;;1.70;1.00;;;11.90;99.90;;;;;;5060154;28;20321;-79
2022/09/01 01:04:43;;;;;;;1.53;1.10;;;11.80;99.90;;;;;;5065899;28;20238;-80
2022/09/01 01:07:12;;;;;;;2.57;1.00;;;11.80;99.90;;;;;;5062394;28;20291;-79
2022/09/01 01:09:43;;;;;;;1.30;0.90;;;11.80;99.90;;;;;;5068471;28;20217;-79
2022/09/01 01:12:17;;;;;;;1.87;1.00;;;11.80;99.90;;;;;;5070030;28;20310;-79
2022/09/01 01:14:44;;;;;;;1.03;1.00;;;11.80;99.90;;;;;;5063772;28;20261;-79
2022/09/01 01:17:11;;;;;;;1.10;0.90;;;11.80;99.90;;;;;;5065828;28;20318;-79
2022/09/01 01:25:21;;;;;;;1.53;1.27;;;11.70;99.90;;;;;;5063344;28;20297;-80
2022/09/01 01:27:48;;;;;;;1.30;1.10;;;11.70;99.90;;;;;;5065789;28;20212;-80
2022/09/01 01:30:16;;;;;;;2.10;1.13;;;11.60;99.90;;;;;;5057195;28;20222;-79
2022/09/01 01:32:46;;;;;;;2.30;1.10;;;11.60;99.90;;;;;;5064419;28;20310;-79
2022/09/01 01:35:16;;;;;;;1.50;1.00;;;11.60;99.90;;;;;;5063753;28;20229;-79
2022/09/01 01:37:47;;;;;;;1.73;1.27;;;11.60;99.90;;;;;;5064844;28;20224;-79
2022/09/01 01:40:19;;;;;;;2.53;1.10;;;11.60;99.90;;;;;;5060112;28;20217;-80
2022/09/01 01:42:49;;;;;;;1.47;1.20;;;11.50;99.90;;;;;;5063894;28;20577;-79
2022/09/01 01:45:22;;;;;;;1.27;1.07;;;11.60;99.90;;;;;;5077163;28;20224;-79
2022/09/01 01:47:52;;;;;;;1.37;1.20;;;11.50;99.90;;;;;;5066258;28;20231;-81
2022/09/01 01:50:20;;;;;;;2.17;1.00;;;11.50;99.90;;;;;;5063459;28;20237;-80
2022/09/01 01:52:47;;;;;;;1.40;1.20;;;11.50;99.90;;;;;;5068661;28;20593;-80
2022/09/01 01:55:18;;;;;;;1.50;1.30;;;11.50;99.90;;;;;;5065349;28;20270;-80
2022/09/01 01:57:48;;;;;;;1.87;1.30;;;11.50;99.90;;;;;;5071886;28;20272;-80
2022/09/01 02:00:19;;;;;;;1.40;1.17;;;11.40;99.90;;;;;;5064002;28;21808;-80
2022/09/01 02:02:51;;;;;;;1.17;1.00;;;11.40;99.90;;;;;;5066986;28;20248;-80
2022/09/01 02:05:21;;;;;;;1.63;1.20;;;11.40;99.90;;;;;;5066574;28;20219;-80
2022/09/01 02:07:48;;;;;;;1.80;1.30;;;11.40;99.90;;;;;;5065551;28;20250;-79
2022/09/01 02:10:16;;;;;;;1.70;1.17;;;11.30;99.90;;;;;;5065812;28;20235;-80
2022/09/01 02:12:45;;;;;;;1.67;1.03;;;11.30;99.90;;;;;;5065522;28;20230;-80
2022/09/01 02:15:14;;;;;;;1.47;1.37;;;11.30;99.90;;;;;;5068947;28;20212;-80
2022/09/01 02:17:42;;;;;;;1.60;1.07;;;11.30;99.90;;;;;;5071069;28;20223;-80
2022/09/01 02:20:09;;;;;;;4.27;1.30;;;11.30;99.90;;;;;;5062381;28;20224;-80
2022/09/01 02:22:38;;;;;;;3.63;1.37;;;11.30;99.90;;;;;;5067656;28;20225;-80
2022/09/01 02:25:05;;;;;;;2.53;1.43;;;11.20;99.90;;;;;;5062124;28;20226;-80
2022/09/01 02:27:35;;;;;;;1.27;1.17;;;11.20;99.90;;;;;;5064061;28;20225;-80
2022/09/01 02:30:05;;;;;;;1.30;1.20;;;11.20;99.90;;;;;;5079460;28;20755;-80
2022/09/01 02:32:33;;;;;;;2.03;1.30;;;11.20;99.90;;;;;;5064618;28;20314;-80
2022/09/01 02:35:00;;;;;;;2.17;1.50;;;11.20;99.90;;;;;;5063802;28;20352;-80
2022/09/01 02:37:28;;;;;;;1.70;1.10;;;11.20;99.90;;;;;;5065326;28;20233;-80
2022/09/01 02:39:56;;;;;;;1.20;1.10;;;11.10;99.90;;;;;;5059807;28;20647;-79
2022/09/01 02:42:25;;;;;;;1.53;1.40;;;11.10;99.90;;;;;;5059386;28;20229;-79
2022/09/01 02:44:53;;;;;;;2.30;1.40;;;11.10;99.90;;;;;;5063803;28;20255;-79
2022/09/01 02:47:22;;;;;;;1.30;1.03;;;11.10;99.90;;;;;;5060349;28;20628;-79
2022/09/01 02:49:51;;;;;;;1.03;1.03;;;11.00;99.90;;;;;;5065367;28;20277;-80
2022/09/01 02:52:20;;;;;;;2.13;1.23;;;11.00;99.90;;;;;;5063350;28;20311;-80
2022/09/01 02:54:49;;;;;;;1.43;1.13;;;11.00;99.90;;;;;;5058810;28;20244;-80
2022/09/01 02:57:17;;;;;;;1.00;0.90;;;11.00;99.90;;;;;;5060957;28;20314;-80
2022/09/01 02:59:46;;;;;;;1.40;1.30;;;11.00;99.90;;;;;;5062061;28;20344;-80
2022/09/01 03:02:13;;;;;;;1.23;1.07;;;11.00;99.90;;;;;;5068176;28;20702;-80
2022/09/01 03:04:39;;;;;;;1.20;1.10;;;10.90;99.90;;;;;;5074221;28;20219;-80
2022/09/01 03:07:07;;;;;;;2.13;1.20;;;10.90;99.90;;;;;;5068475;28;20258;-80
2022/09/01 03:09:35;;;;;;;1.40;1.23;;;10.90;99.90;;;;;;5066357;28;20226;-78
2022/09/01 03:12:05;;;;;;;1.87;1.10;;;10.90;99.90;;;;;;5067071;28;21194;-81
2022/09/01 03:14:32;;;;;;;2.30;1.13;;;10.80;99.90;;;;;;5068544;28;20269;-79
2022/09/01 03:17:00;;;;;;;2.10;1.40;;;10.80;99.90;;;;;;5072635;28;20230;-79
2022/09/01 03:19:43;;;;;;;2.83;1.30;;;10.80;99.90;;;;;;5070120;28;20250;-79
2022/09/01 03:22:11;;;;;;;1.50;1.30;;;10.70;99.90;;;;;;5066411;28;20227;-80
2022/09/01 03:24:38;;;;;;;1.87;1.40;;;10.70;99.90;;;;;;5060927;28;20278;-80
2022/09/01 03:27:06;;;;;;;2.97;1.17;;;10.70;99.90;;;;;;5067038;28;20623;-79
2022/09/01 03:29:32;;;;;;;1.77;1.03;;;10.70;99.90;;;;;;5068169;28;20257;-84
2022/09/01 03:32:01;;;;;;;1.97;1.50;;;10.70;99.90;;;;;;5066184;28;20645;-83
2022/09/01 03:34:28;;;;;;;1.50;1.40;;;10.70;99.90;;;;;;5067815;28;20338;-81
2022/09/01 03:36:56;;;;;;;2.47;1.53;;;10.60;99.90;;;;;;5064006;28;20318;-81
2022/09/01 03:39:28;;;;;;;2.27;1.20;;;10.70;99.90;;;;;;5063527;28;20307;-82
2022/09/01 03:41:57;;;;;;;1.60;1.30;;;10.70;99.90;;;;;;5063669;28;20259;-81
2022/09/01 03:44:23;;;;;;;1.73;1.63;;;10.70;99.90;;;;;;5062843;28;20586;-81
2022/09/01 03:46:51;;;;;;;2.17;1.40;;;10.70;99.90;;;;;;5068682;28;20236;-83
2022/09/01 03:49:23;;;;;;;2.70;1.50;;;10.70;99.90;;;;;;5069689;28;20238;-82
2022/09/01 03:51:52;;;;;;;3.10;1.40;;;10.70;99.90;;;;;;5069599;28;20228;-82
2022/09/01 03:54:23;;;;;;;2.60;1.70;;;10.70;99.90;;;;;;5066071;28;20312;-84
2022/09/01 03:56:51;;;;;;;1.97;1.60;;;10.70;99.90;;;;;;5067687;28;20294;-82
2022/09/01 03:59:18;;;;;;;3.93;1.70;;;10.70;99.90;;;;;;5061509;28;20284;-82
2022/09/01 04:01:47;;;;;;;1.97;1.43;;;10.70;99.90;;;;;;5051710;28;20225;-81
2022/09/01 04:04:15;;;;;;;1.73;1.63;;;10.70;99.90;;;;;;5072813;28;20217;-82
2022/09/01 04:06:43;;;;;;;2.93;1.60;;;10.70;99.90;;;;;;5069556;28;20327;-82
2022/09/01 04:09:11;;;;;;;1.87;1.50;;;10.60;99.90;;;;;;5066707;28;20220;-82
2022/09/01 04:11:40;;;;;;;3.23;1.37;;;10.60;99.90;;;;;;5069185;28;20219;-82
2022/09/01 04:14:10;;;;;;;1.40;1.30;;;10.60;99.90;;;;;;5068662;28;20220;-81
2022/09/01 04:19:25;;;;;;;2.27;1.40;;;10.50;99.90;;;;;;5069428;28;20223;-85
2022/09/01 04:21:54;;;;;;;1.63;1.53;;;10.50;99.90;;;;;;5067086;28;20243;-82
2022/09/01 04:24:23;;;;;;;1.60;1.50;;;10.40;99.90;;;;;;5064364;28;20216;-80
2022/09/01 04:26:51;;;;;;;1.97;1.47;;;10.40;99.90;;;;;;5063302;28;20228;-85
2022/09/01 04:29:26;;;;;;;2.17;1.70;;;10.40;99.90;;;;;;5062166;28;20329;-80
2022/09/01 04:31:54;;;;;;;2.00;1.60;;;10.30;99.90;;;;;;5067176;28;20321;-80
2022/09/01 04:34:21;;;;;;;1.50;1.40;;;10.30;99.90;;;;;;5062552;28;20216;-81
2022/09/01 04:36:52;;;;;;;2.00;1.50;;;10.30;99.90;;;;;;5065091;28;20224;-81
2022/09/01 04:39:20;;;;;;;1.97;1.63;;;10.20;99.90;;;;;;5077821;28;20605;-82
2022/09/01 04:41:49;;;;;;;2.03;1.57;;;10.20;99.90;;;;;;5062862;28;20227;-82
2022/09/01 04:44:17;;;;;;;1.57;1.47;;;10.20;99.90;;;;;;5061141;28;20851;-79
2022/09/01 04:46:49;;;;;;;2.00;1.50;;;10.20;99.90;;;;;;5062695;28;20598;-79
2022/09/01 04:49:21;;;;;;;2.20;1.70;;;10.20;99.90;;;;;;5060761;28;20216;-79
2022/09/01 04:51:50;;;;;;;3.73;1.70;;;10.20;99.90;;;;;;5065697;28;20215;-80
2022/09/01 04:54:18;;;;;;;2.30;1.70;;;10.10;99.90;;;;;;5072179;28;20228;-79
2022/09/01 04:56:49;;;;;;;1.87;1.70;;;10.20;99.90;;;;;;5066279;28;20301;-79
2022/09/01 04:59:19;;;;;;;1.90;1.70;;;10.20;99.90;;;;;;5065982;28;20243;-80
2022/09/01 05:01:56;;;;;;;2.17;1.70;;;10.20;99.90;;;;;;5067146;28;20677;-80
2022/09/01 05:04:26;;;;;;;3.17;1.50;;;10.20;99.90;;;;;;5056200;28;20516;-79
2022/09/01 05:06:59;;;;;;;2.57;1.70;;;10.20;99.90;;;;;;5058248;28;20810;-80
2022/09/01 05:09:31;;;;;;;2.53;1.77;;;10.20;99.90;;;;;;5055469;28;20223;-80
2022/09/01 05:12:20;;;;;;;3.10;2.07;;;10.20;99.90;;;;;;5064985;28;20307;-80
2022/09/01 05:14:48;;;;;;;2.47;2.00;;;10.30;99.90;;;;;;5074687;28;20224;-80
2022/09/01 05:17:24;;;;;;;2.47;1.90;;;10.30;99.90;;;;;;5068783;28;20293;-80
2022/09/01 05:19:53;;;;;;;2.80;1.70;;;10.40;99.90;;;;;;5058923;28;20322;-79
2022/09/01 05:22:21;;;;;;;3.50;2.13;;;10.30;99.90;;;;;;5057679;28;20842;-79
2022/09/01 05:24:55;;;;;;;2.40;1.97;;;10.40;99.90;;;;;;5079845;28;20809;-79
2022/09/01 05:27:25;;;;;;;5.03;2.00;;;10.50;99.90;;;;;;5055253;28;20789;-79
2022/09/01 05:29:52;;;;;;;2.03;1.50;;;10.50;99.90;;;;;;5067745;28;20577;-81
2022/09/01 05:32:24;;;;;;;3.90;1.57;;;10.60;99.90;;;;;;5069946;28;20784;-82
2022/09/01 05:34:52;;;;;;;2.90;1.93;;;10.60;99.90;;;;;;5064912;28;20320;-84
2022/09/01 05:37:19;;;;;;;1.90;1.60;;;10.70;99.90;;;;;;5064837;28;20235;-80
2022/09/01 05:39:46;;;;;;;3.80;1.80;;;10.70;99.90;;;;;;5066163;28;20212;-82
2022/09/01 05:42:13;;;;;;;1.83;1.70;;;10.80;99.90;;;;;;5067076;28;20295;-80
2022/09/01 05:44:42;;;;;;;1.70;1.60;;;10.80;99.90;;;;;;5063792;28;20257;-79
2022/09/01 05:47:11;;;;;;;4.77;1.70;;;10.90;99.90;;;;;;5064732;28;20215;-81
2022/09/01 05:49:39;;;;;;;3.80;1.77;;;11.00;99.90;;;;;;5063935;28;20221;-79
2022/09/01 05:52:09;;;;;;;1.93;1.80;;;11.00;99.90;;;;;;5068586;28;20786;-80
2022/09/01 05:54:37;;;;;;;2.00;1.77;;;11.00;99.90;;;;;;5064695;28;20326;-80
2022/09/01 05:57:06;;;;;;;4.10;2.17;;;11.10;99.90;;;;;;5073259;28;20240;-80
2022/09/01 05:59:33;;;;;;;2.90;1.90;;;11.10;99.90;;;;;;5065293;28;20228;-80
2022/09/01 06:02:10;;;;;;;2.40;2.10;;;11.10;99.90;;;;;;5060732;28;20222;-80
2022/09/01 06:04:42;;;;;;;3.13;1.97;;;11.20;99.90;;;;;;5061663;28;20218;-80
2022/09/01 06:07:14;;;;;;;2.47;1.90;;;11.20;99.90;;;;;;5070179;28;20246;-80
2022/09/01 06:09:46;;;;;;;2.00;1.73;;;11.30;99.90;;;;;;5075041;28;20223;-81
2022/09/01 06:12:18;;;;;;;2.87;2.00;;;11.40;99.90;;;;;;5069635;28;20355;-81
2022/09/01 06:14:46;;;;;;;2.20;1.70;;;11.40;99.90;;;;;;5066135;28;20262;-82
2022/09/01 06:17:15;;;;;;;2.90;1.80;;;11.50;99.90;;;;;;5070342;28;20648;-80
2022/09/01 06:19:45;;;;;;;4.87;2.33;;;11.50;99.90;;;;;;5065435;28;20256;-80
2022/09/01 06:22:12;;;;;;;4.30;1.87;;;11.60;99.90;;;;;;5050444;28;20227;-82
2022/09/01 06:24:40;;;;;;;2.00;1.80;;;11.70;99.90;;;;;;5066026;28;20227;-80
2022/09/01 06:27:08;;;;;;;1.90;1.80;;;11.70;99.90;;;;;;5071784;28;20311;-80
2022/09/01 06:29:38;;;;;;;2.77;1.53;;;11.80;99.90;;;;;;5064897;28;20215;-80
2022/09/01 06:32:09;;;;;;;4.43;1.80;;;11.90;99.90;;;;;;5066295;28;20303;-80
2022/09/01 06:34:36;;;;;;;1.77;1.40;;;12.00;99.90;;;;;;5062496;28;20244;-80
2022/09/01 06:37:05;;;;;;;3.17;1.60;;;12.10;99.90;;;;;;5058768;28;20284;-82
2022/09/01 06:39:33;;;;;;;2.10;1.90;;;12.10;99.90;;;;;;5059679;28;20224;-82
2022/09/01 06:42:01;;;;;;;2.10;1.50;;;12.20;99.90;;;;;;5064695;28;20231;-82
2022/09/01 06:44:36;;;;;;;1.97;1.57;;;12.30;99.90;;;;;;5064301;28;20787;-80
2022/09/01 06:47:07;;;;;;;2.57;1.63;;;12.40;99.90;;;;;;5065709;28;20221;-79
2022/09/01 06:49:35;;;;;;;2.37;1.30;;;12.40;99.90;;;;;;5077707;28;20223;-78
2022/09/01 06:52:09;;;;;;;2.43;1.30;;;12.50;99.90;;;;;;5064104;28;20238;-80
2022/09/01 06:54:38;;;;;;;2.30;1.20;;;12.60;99.90;;;;;;5063505;28;20216;-81
2022/09/01 06:57:05;;;;;;;3.37;1.00;;;12.60;99.90;;;;;;5062928;28;20220;-80
2022/09/01 06:59:32;;;;;;;1.40;0.90;;;12.70;99.90;;;;;;5066304;28;20245;-82
2022/09/01 07:02:03;;;;;;;2.43;0.90;;;12.80;99.90;;;;;;5059721;28;20308;-80
2022/09/01 07:04:42;;;;;;;1.37;0.80;;;12.90;99.90;;;;;;5055345;28;20242;-82
2022/09/01 07:07:11;;;;;;;1.53;0.67;;;13.00;99.90;;;;;;5061073;28;20240;-80
2022/09/01 07:09:56;;;;;;;1.30;0.73;;;13.10;99.90;;;;;;5064829;28;20229;-81
2022/09/01 07:12:35;;;;;;;1.67;0.93;;;13.20;99.90;;;;;;5062352;28;20236;-81
2022/09/01 07:15:03;;;;;;;1.57;0.70;;;13.30;99.90;;;;;;5066690;28;20213;-81
2022/09/01 07:17:30;;;;;;;0.83;0.50;;;13.40;99.90;;;;;;5064232;28;20381;-80
2022/09/01 07:19:58;;;;;;;1.13;0.70;;;13.50;99.90;;;;;;5067145;28;20224;-83
2022/09/01 07:22:27;;;;;;;2.20;0.60;;;13.60;99.90;;;;;;5055485;28;20329;-83
2022/09/01 07:24:56;;;;;;;0.77;0.63;;;13.60;99.90;;;;;;5079136;28;20954;-84
2022/09/01 07:27:44;;;;;;;1.43;0.60;;;13.70;99.90;;;;;;5068533;28;20299;-84
2022/09/01 07:30:11;;;;;;;1.03;0.50;;;13.90;99.90;;;;;;5068159;28;20249;-82
2022/09/01 07:32:42;;;;;;;0.77;0.60;;;13.90;99.90;;;;;;5059605;28;20220;-84
2022/09/01 07:35:10;;;;;;;0.77;0.60;;;14.00;99.90;;;;;;5056578;28;20809;-83
2022/09/01 07:37:38;;;;;;;1.33;0.60;;;14.10;99.90;;;;;;5063965;28;20218;-84
2022/09/01 07:40:16;;;;;;;0.73;0.50;;;14.20;99.90;;;;;;5074763;28;20226;-85
2022/09/01 07:43:21;;;;;;;0.80;0.60;;;14.30;99.90;;;;;;5064707;28;20946;-83
2022/09/01 07:46:06;;;;;;;1.00;0.47;;;14.40;99.90;;;;;;5068026;28;20930;-82
2022/09/01 07:48:37;;;;;;;0.57;0.50;;;14.60;99.90;;;;;;5072411;28;20217;-84
2022/09/01 07:51:04;;;;;;;1.83;0.60;;;15.10;99.90;;;;;;5063531;28;20227;-83
2022/09/01 07:53:34;;;;;;;1.10;0.60;;;15.80;99.90;;;;;;5059822;28;20255;-83
2022/09/01 07:56:08;;;;;;;2.28;0.55;;;16.60;99.90;;;;;;5058936;28;20248;-84
2022/09/01 07:58:40;;;;;;;0.85;0.45;;;17.60;99.90;;;;;;5065024;28;20215;-84
2022/09/01 08:01:08;;;;;;;0.80;0.40;;;18.60;99.90;;;;;;5071760;28;20848;-85
2022/09/01 08:03:37;;;;;;;0.80;0.40;;;19.50;99.90;;;;;;5060812;28;20242;-83
2022/09/01 08:06:06;;;;;;;0.98;0.60;;;20.40;99.90;;;;;;5067773;28;20224;-82
2022/09/01 08:08:39;;;;;;;1.25;0.60;;;21.30;99.90;;;;;;5071144;28;20220;-84
2022/09/01 08:11:08;;;;;;;2.47;0.52;;;22.00;97.70;;;;;;5068189;28;20227;-86
2022/09/01 08:13:38;;;;;;;0.30;0.30;;;22.70;98.00;;;;;;5061247;28;20235;-84
2022/09/01 08:16:07;;;;;;;0.55;0.50;;;23.30;96.50;;;;;;5071435;28;20576;-83
2022/09/01 08:18:35;;;;;;;1.15;0.73;;;23.90;95.50;;;;;;5068179;28;20219;-83
2022/09/01 08:21:06;;;;;;;0.40;0.40;;;24.30;94.00;;;;;;5073501;28;20230;-84
2022/09/01 08:23:33;;;;;;;0.52;0.50;;;24.70;92.90;;;;;;5072346;28;20322;-86
2022/09/01 08:26:05;;;;;;;0.95;0.50;;;25.10;91.70;;;;;;5069493;28;20231;-83
2022/09/01 08:28:33;;;;;;;1.35;0.50;;;25.50;90.80;;;;;;5079442;28;20357;-84
2022/09/01 08:31:03;;;;;;;3.75;0.63;;;25.80;90.50;;;;;;5072222;28;20398;-83
2022/09/01 08:33:33;;;;;;;1.23;0.50;;;26.20;89.00;;;;;;5064702;28;20780;-84
2022/09/01 08:36:00;;;;;;;2.42;0.50;;;26.60;87.90;;;;;;5061114;28;20310;-83
2022/09/01 08:38:26;;;;;;;0.77;0.40;;;27.00;86.00;;;;;;5071343;28;21240;-83
2022/09/01 08:40:56;;;;;;;1.88;0.40;;;27.30;82.70;;;;;;5066718;28;20233;-82
2022/09/01 08:43:42;;;;;;;0.63;0.30;;;27.60;78.50;;;;;;5068568;28;20229;-82
2022/09/01 08:46:14;;;;;;;0.95;0.30;;;27.70;74.70;;;;;;5071905;28;20662;-81
2022/09/01 08:48:45;;;;;;;1.52;0.43;;;27.90;76.60;;;;;;5060327;28;20248;-81
2022/09/01 08:51:19;;;;;;;0.75;0.40;;;28.20;76.20;;;;;;5081195;28;20234;-82
2022/09/01 08:54:05;;;;;;;0.68;0.52;;;28.40;74.60;;;;;;5081268;28;20230;-81
2022/09/01 08:56:36;;;;;;;1.35;0.40;;;28.80;72.90;;;;;;5067408;28;21002;-81
2022/09/01 08:59:08;;;;;;;0.90;0.45;;;29.10;73.10;;;;;;5055778;28;20219;-80
2022/09/01 09:02:27;;;;;;;1.05;0.50;;;29.30;71.70;;;;;;5003552;28;20224;-81
2022/09/01 09:05:06;;;;;;;2.83;0.40;;;29.70;71.20;;;;;;5007711;28;20220;-80
2022/09/01 09:07:50;;;;;;;0.38;0.38;;;29.90;68.30;;;;;;5040060;28;20230;-82
2022/09/01 09:10:21;;;;;;;1.65;0.43;;;30.20;64.20;;;;;;5070534;28;20224;-82
2022/09/01 09:13:04;;;;;;;0.95;0.40;;;30.20;65.10;;;;;;5068275;28;20747;-83
2022/09/01 09:15:43;;;;;;;0.55;0.50;;;30.20;63.50;;;;;;5067764;28;20226;-82
2022/09/01 09:18:19;;;;;;;2.05;0.47;;;30.20;63.40;;;;;;5082759;28;20203;-82
2022/09/01 09:20:52;;;;;;;0.50;0.30;;;30.30;61.90;;;;;;5073043;28;20223;-82
2022/09/01 09:23:25;;;;;;;1.52;0.40;;;30.40;62.50;;;;;;5065517;28;20249;-81
2022/09/01 09:25:52;;;;;;;0.57;0.50;;;30.40;61.30;;;;;;5085390;28;20234;-83
2022/09/01 09:28:19;;;;;;;1.10;0.43;;;30.50;61.50;;;;;;5057423;28;20227;-81
2022/09/01 09:30:47;;;;;;;0.85;0.32;;;30.60;61.50;;;;;;5073987;28;20284;-83
2022/09/01 09:33:35;;;;;;;0.77;0.45;;;30.80;60.00;;;;;;5071072;28;20243;-81
2022/09/01 09:36:18;;;;;;;1.15;0.50;;;31.10;59.40;;;;;;5058651;28;20224;-81
2022/09/01 09:38:49;;;;;;;1.40;0.60;;;31.50;58.70;;;;;;5073206;28;20703;-81
2022/09/01 09:41:19;;;;;;;2.10;0.45;;;31.80;57.90;;;;;;5062895;28;20280;-82
2022/09/01 09:43:51;;;;;;;2.22;0.50;;;32.00;57.70;;;;;;5072022;28;20234;-84
2022/09/01 09:46:26;;;;;;;1.00;0.40;;;32.20;55.30;;;;;;5080054;28;20234;-82
2022/09/01 09:49:24;;;;;;;0.40;0.40;;;32.10;53.10;;;;;;5066959;28;20572;-81
2022/09/01 09:51:53;;;;;;;1.58;0.47;;;32.00;56.30;;;;;;4987427;28;20329;-82
2022/09/01 09:54:24;;;;;;;1.48;0.50;;;32.00;54.20;;;;;;5046229;28;20226;-83
2022/09/01 09:57:05;;;;;;;0.82;0.47;;;31.90;53.20;;;;;;5067212;28;20246;-82
2022/09/01 09:59:35;;;;;;;0.70;0.68;;;31.70;52.40;;;;;;5060629;28;20318;-83
2022/09/01 10:02:24;;;;;;;0.52;0.35;;;31.40;51.10;;;;;;5061681;28;20250;-81
2022/09/01 10:04:51;;;;;;;0.47;0.40;;;31.10;51.10;;;;;;5057341;28;20231;-82
2022/09/01 10:07:34;;;;;;;0.80;0.52;;;30.80;51.00;;;;;;5067431;28;20231;-81
2022/09/01 10:10:04;;;;;;;0.40;0.30;;;30.60;50.80;;;;;;5063458;28;20299;-81
2022/09/01 10:12:33;;;;;;;0.63;0.35;;;30.30;50.30;;;;;;5062935;28;20690;-81
2022/09/01 10:15:03;;;;;;;0.80;0.57;;;30.00;50.10;;;;;;5049030;28;20235;-81
2022/09/01 10:17:36;;;;;;;0.60;0.47;;;29.70;50.60;;;;;;5056570;28;20231;-81
2022/09/01 10:20:08;;;;;;;0.90;0.40;;;29.40;51.10;;;;;;5057312;28;20966;-83
2022/09/01 10:22:38;;;;;;;1.15;0.45;;;29.10;51.00;;;;;;5057510;28;20215;-81
2022/09/01 10:25:08;;;;;;;1.00;0.40;;;28.70;51.10;;;;;;5061825;28;20306;-81
2022/09/01 10:27:37;;;;;;;0.50;0.50;;;28.30;51.90;;;;;;5058048;28;20836;-81
2022/09/01 10:30:09;;;;;;;0.40;0.40;;;27.90;52.70;;;;;;5057968;28;20695;-81
2022/09/01 10:32:41;;;;;;;0.47;0.32;;;27.50;52.40;;;;;;5057025;28;20668;-81
2022/09/01 10:35:15;;;;;;;1.67;0.50;;;27.30;52.40;;;;;;5059143;28;20227;-81
2022/09/01 10:37:42;;;;;;;0.63;0.35;;;27.20;52.60;;;;;;5057605;28;20223;-82
2022/09/01 10:40:34;;;;;;;1.27;0.50;;;27.10;53.00;;;;;;5057663;28;20552;-81
2022/09/01 10:43:30;;;;;;;1.02;0.38;;;27.00;53.20;;;;;;5055611;28;20223;-81
2022/09/01 10:45:57;;;;;;;1.48;0.50;;;26.80;53.30;;;;;;5057125;28;20251;-82
2022/09/01 10:48:30;;;;;;;0.95;0.60;;;26.70;52.90;;;;;;5061527;28;20307;-83
2022/09/01 10:51:27;;;;;;;1.00;0.50;;;26.40;53.10;;;;;;5061542;28;20223;-82
2022/09/01 10:53:56;;;;;;;1.02;0.32;;;26.10;53.60;;;;;;5044596;28;20251;-83
2022/09/01 10:56:26;;;;;;;1.05;0.63;;;25.80;53.90;;;;;;5059000;28;20331;-82
2022/09/01 10:59:06;;;;;;;0.85;0.50;;;25.50;54.00;;;;;;5061552;28;20908;-82
2022/09/01 11:02:08;;;;;;;0.47;0.45;;;25.10;54.60;;;;;;5057663;28;20227;-82
2022/09/01 11:05:11;;;;;;;1.27;0.40;;;24.80;55.30;;;;;;5059578;28;21088;-81
2022/09/01 11:07:43;;;;;;;0.95;0.50;;;24.60;55.60;;;;;;5060639;28;20206;-81
2022/09/01 11:10:27;;;;;;;0.75;0.50;;;24.40;56.80;;;;;;5067993;28;20306;-83
2022/09/01 11:13:18;;;;;;;1.38;0.40;;;24.30;56.90;;;;;;5063674;28;20227;-80
2022/09/01 11:15:50;;;;;;;1.10;0.68;;;24.40;56.90;;;;;;5061017;28;20231;-81
2022/09/01 11:18:24;;;;;;;3.17;0.50;;;24.60;57.50;;;;;;5059268;28;20701;-82
2022/09/01 11:20:51;;;;;;;1.30;0.70;;;24.90;57.70;;;;;;5065848;28;20251;-82
2022/09/01 11:23:25;;;;;;;0.63;0.50;;;25.10;57.20;;;;;;5069310;28;20298;-83
2022/09/01 11:25:53;;;;;;;1.60;0.60;;;25.20;56.70;;;;;;5064094;28;20235;-80
2022/09/01 11:28:37;;;;;;;1.55;0.60;;;25.20;57.00;;;;;;5066992;28;20546;-81
2022/09/01 11:31:18;;;;;;;0.88;0.40;;;25.10;56.60;;;;;;5064675;28;20640;-81
2022/09/01 11:33:53;;;;;;;1.20;0.45;;;25.00;57.10;;;;;;5070861;28;20219;-80
2022/09/01 11:36:29;;;;;;;1.63;0.50;;;24.90;57.00;;;;;;5063811;28;20864;-80
2022/09/01 11:39:04;;;;;;;0.80;0.50;;;24.80;57.60;;;;;;5061486;28;20235;-80
2022/09/01 11:41:34;;;;;;;2.72;0.75;;;24.80;57.70;;;;;;5062451;28;20226;-81
2022/09/01 11:44:10;;;;;;;1.00;0.73;;;25.00;58.10;;;;;;5064063;28;20678;-81
2022/09/01 11:46:42;;;;;;;0.50;0.40;;;25.30;57.20;;;;;;5061991;28;20234;-82
2022/09/01 11:49:27;;;;;;;1.80;0.40;;;25.60;55.80;;;;;;5067214;28;20292;-83
2022/09/01 11:51:55;;;;;;;0.60;0.50;;;25.90;55.70;;;;;;5064814;28;20374;-81
2022/09/01 11:54:23;;;;;;;0.55;0.50;;;26.30;55.80;;;;;;5064690;28;20228;-82
2022/09/01 11:56:50;;;;;;;1.40;0.50;;;26.60;55.10;;;;;;5071224;28;20305;-84
2022/09/01 11:59:31;;;;;;;0.82;0.55;;;27.00;54.90;;;;;;5061789;28;20212;-83
2022/09/01 12:02:00;;;;;;;0.75;0.50;;;27.50;53.70;;;;;;5067999;28;20219;-81
2022/09/01 12:04:32;;;;;;;1.15;0.52;;;27.80;52.40;;;;;;5068066;28;20230;-81
2022/09/01 12:07:01;;;;;;;0.95;0.50;;;28.20;52.40;;;;;;5064326;28;20906;-81
2022/09/01 12:09:36;;;;;;;0.68;0.60;;;28.40;53.00;;;;;;5061902;28;20747;-81
2022/09/01 12:12:05;;;;;;;0.68;0.50;;;28.60;51.90;;;;;;5072567;28;20223;-81
2022/09/01 12:14:32;;;;;;;0.95;0.60;;;28.80;51.90;;;;;;5059972;28;20230;-81
2022/09/01 12:17:02;;;;;;;0.88;0.50;;;29.00;51.10;;;;;;5057618;28;20739;-83
2022/09/01 12:19:33;;;;;;;0.32;0.30;;;29.20;49.50;;;;;;5061150;28;20759;-84
2022/09/01 12:22:03;;;;;;;1.77;0.47;;;29.30;49.00;;;;;;5061916;28;20216;-82
2022/09/01 12:24:34;;;;;;;1.15;0.50;;;29.40;49.40;;;;;;5061959;28;20227;-82
2022/09/01 12:27:01;;;;;;;0.70;0.43;;;29.40;48.90;;;;;;5064970;28;20685;-80
2022/09/01 12:29:30;;;;;;;0.70;0.50;;;29.40;48.70;;;;;;5065046;28;20234;-83
2022/09/01 12:31:58;;;;;;;0.88;0.50;;;29.30;48.30;;;;;;5061503;28;20498;-84
2022/09/01 12:34:36;;;;;;;0.30;0.30;;;29.20;48.30;;;;;;5070808;28;20233;-81
2022/09/01 12:37:07;;;;;;;0.60;0.40;;;29.30;47.90;;;;;;5049884;28;20242;-81
2022/09/01 12:39:35;;;;;;;4.47;0.50;;;29.40;48.00;;;;;;5061105;28;20223;-81
2022/09/01 12:42:07;;;;;;;0.77;0.45;;;29.50;48.40;;;;;;5063689;28;20246;-82
2022/09/01 12:44:42;;;;;;;1.17;0.60;;;29.60;47.40;;;;;;5064159;28;20306;-82
2022/09/01 12:47:12;;;;;;;1.23;0.50;;;29.60;47.50;;;;;;5056445;28;20491;-81
2022/09/01 12:49:42;;;;;;;0.90;0.40;;;29.70;47.00;;;;;;5069648;28;20243;-81
2022/09/01 12:52:24;;;;;;;0.45;0.40;;;29.70;47.00;;;;;;5056585;28;20215;-82
2022/09/01 12:54:55;;;;;;;0.80;0.50;;;29.60;46.90;;;;;;5065155;28;20284;-83
2022/09/01 12:57:27;;;;;;;0.47;0.47;;;29.60;46.80;;;;;;5062735;28;20219;-82
2022/09/01 13:00:18;;;;;;;0.40;0.40;;;29.60;46.10;;;;;;5060466;28;20219;-81
2022/09/01 13:02:51;;;;;;;0.85;0.52;;;29.30;46.50;;;;;;5061466;28;20223;-82
2022/09/01 13:05:22;;;;;;;1.67;0.52;;;29.20;47.60;;;;;;5063727;28;20235;-81
2022/09/01 13:07:49;;;;;;;0.43;0.43;;;29.10;48.40;;;;;;5070817;28;20265;-81
2022/09/01 13:10:16;;;;;;;1.42;0.70;;;29.10;48.40;;;;;;5061398;28;20211;-81
2022/09/01 13:12:44;;;;;;;0.43;0.40;;;29.10;48.20;;;;;;5063788;28;20326;-80
2022/09/01 13:15:12;;;;;;;0.80;0.40;;;28.90;47.90;;;;;;5067577;28;20228;-81
2022/09/01 13:17:39;;;;;;;1.52;0.50;;;28.50;48.10;;;;;;5063534;28;20229;-81